KBNA METAR and TAF | Updated Today

KBNA METAR

Nashville International Airport

Observation time: 61 min. ago

KBNA 301753Z VRB05KT 10SM SCT230 17/02 A3014 RMK AO2 SLP204 T01720022 10172 20039 58000

Need help? Read our tutorial on how to read METARs or read the parsed version below.

Nashville International Airport (KBNA) METAR

  • Weather conditions on Tue, 30 Nov 2021 17:53:00 +0000 (61 min. ago):
  • Present conditions: Dry
  • Clouds: Scattered at 7010 meters
  • Visibility: 16093 meters
  • Wind: Variable at 5 knots
  • Temperature: 17 celsius
  • Dew point: 2 celsius
  • Pressure: 30.14 inHg
  • Remarks: AO2 SLP204 T01720022 10172 20039 58000


Useful to know...

KBNA TAF

Nashville International Airport

KBNA 301720Z 3018/0118 25005KT P6SM SCT220 FM011500 19011KT P6SM BKN200
Observation time: 1:34 hr. ago
Need help? Read our tutorial on how to read TAFs or read the parsed version below.

Parsed version of TAF for Nashville International Airport (KBNA)

  • From 30 November at 18:00 UTC, to day 01 of the month at 18:00 UTC
  • Clouds: Scattered at 6706 meters
  • Wind: 250 degrees at 5
  • From day 1 of the month at 15:00 UTC
  • Clouds: Broken sky at 6096 meters
  • Wind: 190 degrees at 11

Airports near KBNA

KMQY Weather
IATA: MQY
Region: Smyrna

Smyrna Airport

Found in our database
KMRC Weather
Region: Columbia/Mount Pleasant

Maury County Airport

Not found in our database